sensor_id;sensor_type;location;lat;lon;timestamp;P1;durP1;ratioP1;P2;durP2;ratioP2
12218;SDS011;6172;42.646;23.344;2023-02-15T00:02:24;36.73;;;20.23;;
12218;SDS011;6172;42.646;23.344;2023-02-15T00:04:51;36.60;;;21.00;;
12218;SDS011;6172;42.646;23.344;2023-02-15T00:07:18;37.20;;;20.13;;
12218;SDS011;6172;42.646;23.344;2023-02-15T00:09:46;37.77;;;20.30;;
12218;SDS011;6172;42.646;23.344;2023-02-15T00:12:13;36.73;;;21.63;;
12218;SDS011;6172;42.646;23.344;2023-02-15T00:14:42;35.43;;;20.33;;
12218;SDS011;6172;42.646;23.344;2023-02-15T00:17:08;38.23;;;20.50;;
12218;SDS011;6172;42.646;23.344;2023-02-15T00:19:37;38.40;;;21.37;;
12218;SDS011;6172;42.646;23.344;2023-02-15T00:22:05;36.80;;;20.57;;
12218;SDS011;6172;42.646;23.344;2023-02-15T00:24:32;37.70;;;20.90;;
12218;SDS011;6172;42.646;23.344;2023-02-15T00:26:59;40.00;;;20.47;;
12218;SDS011;6172;42.646;23.344;2023-02-15T00:29:26;34.23;;;19.97;;
12218;SDS011;6172;42.646;23.344;2023-02-15T00:31:53;34.70;;;20.33;;
12218;SDS011;6172;42.646;23.344;2023-02-15T00:34:22;37.63;;;20.30;;
12218;SDS011;6172;42.646;23.344;2023-02-15T00:36:51;35.47;;;19.53;;
12218;SDS011;6172;42.646;23.344;2023-02-15T00:39:19;34.80;;;19.47;;
12218;SDS011;6172;42.646;23.344;2023-02-15T00:41:46;33.83;;;19.73;;
12218;SDS011;6172;42.646;23.344;2023-02-15T00:44:14;35.97;;;19.90;;
12218;SDS011;6172;42.646;23.344;2023-02-15T00:46:41;35.83;;;20.10;;
12218;SDS011;6172;42.646;23.344;2023-02-15T00:49:08;35.97;;;19.87;;
12218;SDS011;6172;42.646;23.344;2023-02-15T00:51:36;36.13;;;19.37;;
12218;SDS011;6172;42.646;23.344;2023-02-15T00:54:05;33.13;;;18.87;;
12218;SDS011;6172;42.646;23.344;2023-02-15T00:56:32;34.70;;;19.73;;
12218;SDS011;6172;42.646;23.344;2023-02-15T00:59:00;35.10;;;19.37;;
12218;SDS011;6172;42.646;23.344;2023-02-15T01:01:27;33.37;;;17.30;;
12218;SDS011;6172;42.646;23.344;2023-02-15T01:03:54;32.50;;;18.87;;
12218;SDS011;6172;42.646;23.344;2023-02-15T01:06:21;34.57;;;18.40;;
12218;SDS011;6172;42.646;23.344;2023-02-15T01:08:48;34.83;;;19.77;;
12218;SDS011;6172;42.646;23.344;2023-02-15T01:11:18;35.60;;;19.70;;
12218;SDS011;6172;42.646;23.344;2023-02-15T01:13:48;34.17;;;18.37;;
12218;SDS011;6172;42.646;23.344;2023-02-15T01:16:18;32.57;;;18.77;;
12218;SDS011;6172;42.646;23.344;2023-02-15T01:18:46;33.20;;;18.27;;
12218;SDS011;6172;42.646;23.344;2023-02-15T01:21:14;34.87;;;19.57;;
12218;SDS011;6172;42.646;23.344;2023-02-15T01:23:42;35.20;;;19.67;;
12218;SDS011;6172;42.646;23.344;2023-02-15T01:26:10;33.77;;;19.47;;
12218;SDS011;6172;42.646;23.344;2023-02-15T01:28:41;33.53;;;19.53;;
12218;SDS011;6172;42.646;23.344;2023-02-15T01:31:09;34.27;;;18.60;;
12218;SDS011;6172;42.646;23.344;2023-02-15T01:33:38;31.80;;;18.67;;
12218;SDS011;6172;42.646;23.344;2023-02-15T01:36:06;36.77;;;20.00;;
12218;SDS011;6172;42.646;23.344;2023-02-15T01:38:36;36.30;;;18.50;;
12218;SDS011;6172;42.646;23.344;2023-02-15T01:41:05;35.37;;;19.90;;
12218;SDS011;6172;42.646;23.344;2023-02-15T01:43:50;36.23;;;19.87;;
12218;SDS011;6172;42.646;23.344;2023-02-15T01:46:21;35.13;;;19.10;;
12218;SDS011;6172;42.646;23.344;2023-02-15T01:48:52;33.17;;;19.17;;
12218;SDS011;6172;42.646;23.344;2023-02-15T01:51:24;31.90;;;18.20;;
12218;SDS011;6172;42.646;23.344;2023-02-15T01:53:55;33.63;;;19.17;;
12218;SDS011;6172;42.646;23.344;2023-02-15T01:56:29;34.27;;;19.07;;
12218;SDS011;6172;42.646;23.344;2023-02-15T01:59:02;28.23;;;17.03;;
12218;SDS011;6172;42.646;23.344;2023-02-15T02:01:33;33.90;;;19.27;;
12218;SDS011;6172;42.646;23.344;2023-02-15T02:04:02;33.87;;;18.80;;
12218;SDS011;6172;42.646;23.344;2023-02-15T02:06:35;34.50;;;18.57;;
12218;SDS011;6172;42.646;23.344;2023-02-15T02:09:04;34.97;;;19.00;;
12218;SDS011;6172;42.646;23.344;2023-02-15T02:11:31;33.07;;;18.57;;
12218;SDS011;6172;42.646;23.344;2023-02-15T02:14:00;35.13;;;20.17;;
12218;SDS011;6172;42.646;23.344;2023-02-15T02:16:28;34.40;;;19.17;;
12218;SDS011;6172;42.646;23.344;2023-02-15T02:19:14;31.67;;;17.40;;
12218;SDS011;6172;42.646;23.344;2023-02-15T02:25:12;31.23;;;17.93;;
12218;SDS011;6172;42.646;23.344;2023-02-15T02:27:53;34.27;;;18.50;;
12218;SDS011;6172;42.646;23.344;2023-02-15T02:33:53;32.90;;;18.50;;
12218;SDS011;6172;42.646;23.344;2023-02-15T02:36:30;32.83;;;18.60;;
12218;SDS011;6172;42.646;23.344;2023-02-15T02:39:09;32.07;;;17.53;;
12218;SDS011;6172;42.646;23.344;2023-02-15T02:41:49;30.67;;;18.53;;
12218;SDS011;6172;42.646;23.344;2023-02-15T02:44:22;33.13;;;16.67;;
12218;SDS011;6172;42.646;23.344;2023-02-15T02:46:54;32.23;;;17.30;;
12218;SDS011;6172;42.646;23.344;2023-02-15T02:49:31;31.63;;;17.63;;
12218;SDS011;6172;42.646;23.344;2023-02-15T02:51:59;30.83;;;18.10;;
12218;SDS011;6172;42.646;23.344;2023-02-15T02:54:28;32.23;;;18.17;;
12218;SDS011;6172;42.646;23.344;2023-02-15T02:56:56;30.03;;;17.43;;
12218;SDS011;6172;42.646;23.344;2023-02-15T02:59:27;32.00;;;18.10;;
12218;SDS011;6172;42.646;23.344;2023-02-15T03:02:00;30.83;;;17.73;;
12218;SDS011;6172;42.646;23.344;2023-02-15T03:04:35;30.70;;;17.03;;
12218;SDS011;6172;42.646;23.344;2023-02-15T03:07:06;30.50;;;18.30;;
12218;SDS011;6172;42.646;23.344;2023-02-15T03:09:38;29.47;;;16.70;;
12218;SDS011;6172;42.646;23.344;2023-02-15T03:12:08;27.70;;;17.47;;
12218;SDS011;6172;42.646;23.344;2023-02-15T03:14:37;25.93;;;16.33;;
12218;SDS011;6172;42.646;23.344;2023-02-15T03:17:06;29.33;;;16.27;;
12218;SDS011;6172;42.646;23.344;2023-02-15T03:19:36;27.60;;;16.67;;
12218;SDS011;6172;42.646;23.344;2023-02-15T03:22:06;29.40;;;17.07;;
12218;SDS011;6172;42.646;23.344;2023-02-15T03:24:45;27.93;;;15.93;;
12218;SDS011;6172;42.646;23.344;2023-02-15T03:27:20;32.33;;;17.80;;
12218;SDS011;6172;42.646;23.344;2023-02-15T03:29:51;29.07;;;16.90;;
12218;SDS011;6172;42.646;23.344;2023-02-15T03:32:21;29.27;;;16.67;;
12218;SDS011;6172;42.646;23.344;2023-02-15T03:34:51;30.57;;;17.97;;
12218;SDS011;6172;42.646;23.344;2023-02-15T03:37:20;30.97;;;17.03;;
12218;SDS011;6172;42.646;23.344;2023-02-15T03:39:54;25.63;;;15.83;;
12218;SDS011;6172;42.646;23.344;2023-02-15T03:42:46;24.43;;;15.67;;
12218;SDS011;6172;42.646;23.344;2023-02-15T03:45:21;25.40;;;14.80;;
12218;SDS011;6172;42.646;23.344;2023-02-15T03:47:52;26.97;;;15.77;;
12218;SDS011;6172;42.646;23.344;2023-02-15T03:50:24;26.03;;;15.97;;
12218;SDS011;6172;42.646;23.344;2023-02-15T03:53:11;28.07;;;16.33;;
12218;SDS011;6172;42.646;23.344;2023-02-15T03:55:46;27.00;;;15.77;;
12218;SDS011;6172;42.646;23.344;2023-02-15T03:58:13;26.03;;;16.20;;
12218;SDS011;6172;42.646;23.344;2023-02-15T04:00:57;27.83;;;15.93;;
12218;SDS011;6172;42.646;23.344;2023-02-15T04:03:44;29.47;;;16.17;;
12218;SDS011;6172;42.646;23.344;2023-02-15T04:06:17;25.97;;;15.50;;
12218;SDS011;6172;42.646;23.344;2023-02-15T04:08:43;25.30;;;16.27;;
12218;SDS011;6172;42.646;23.344;2023-02-15T04:11:28;27.97;;;15.37;;
12218;SDS011;6172;42.646;23.344;2023-02-15T04:13:55;26.53;;;15.80;;
12218;SDS011;6172;42.646;23.344;2023-02-15T04:16:22;27.13;;;15.13;;
12218;SDS011;6172;42.646;23.344;2023-02-15T04:18:48;28.13;;;15.83;;
12218;SDS011;6172;42.646;23.344;2023-02-15T04:21:34;25.30;;;15.77;;
12218;SDS011;6172;42.646;23.344;2023-02-15T04:24:18;27.50;;;15.57;;
12218;SDS011;6172;42.646;23.344;2023-02-15T04:27:03;27.43;;;16.13;;
12218;SDS011;6172;42.646;23.344;2023-02-15T04:29:31;27.10;;;16.20;;
12218;SDS011;6172;42.646;23.344;2023-02-15T04:31:58;27.20;;;16.13;;
12218;SDS011;6172;42.646;23.344;2023-02-15T04:34:27;32.10;;;17.77;;
12218;SDS011;6172;42.646;23.344;2023-02-15T04:36:55;25.80;;;15.73;;
12218;SDS011;6172;42.646;23.344;2023-02-15T04:39:22;29.20;;;17.47;;
12218;SDS011;6172;42.646;23.344;2023-02-15T04:41:49;29.40;;;16.57;;
12218;SDS011;6172;42.646;23.344;2023-02-15T04:44:15;26.97;;;16.03;;
12218;SDS011;6172;42.646;23.344;2023-02-15T04:46:42;28.80;;;16.60;;
12218;SDS011;6172;42.646;23.344;2023-02-15T04:49:09;28.57;;;15.53;;
12218;SDS011;6172;42.646;23.344;2023-02-15T04:51:36;29.40;;;16.77;;
12218;SDS011;6172;42.646;23.344;2023-02-15T04:54:05;27.63;;;16.00;;
12218;SDS011;6172;42.646;23.344;2023-02-15T04:56:32;30.77;;;17.33;;
12218;SDS011;6172;42.646;23.344;2023-02-15T04:59:00;26.33;;;15.40;;
12218;SDS011;6172;42.646;23.344;2023-02-15T05:01:27;27.93;;;15.90;;
12218;SDS011;6172;42.646;23.344;2023-02-15T05:03:54;28.10;;;16.13;;
12218;SDS011;6172;42.646;23.344;2023-02-15T05:06:21;29.73;;;16.77;;
12218;SDS011;6172;42.646;23.344;2023-02-15T05:08:48;31.83;;;17.77;;
12218;SDS011;6172;42.646;23.344;2023-02-15T05:11:17;26.00;;;16.20;;
12218;SDS011;6172;42.646;23.344;2023-02-15T05:13:43;29.77;;;18.07;;
12218;SDS011;6172;42.646;23.344;2023-02-15T05:16:10;28.53;;;15.97;;
12218;SDS011;6172;42.646;23.344;2023-02-15T05:18:37;28.07;;;16.87;;
12218;SDS011;6172;42.646;23.344;2023-02-15T05:21:04;28.77;;;16.67;;
12218;SDS011;6172;42.646;23.344;2023-02-15T05:23:31;30.23;;;16.57;;
12218;SDS011;6172;42.646;23.344;2023-02-15T05:25:58;26.83;;;16.40;;
12218;SDS011;6172;42.646;23.344;2023-02-15T05:28:46;27.47;;;15.87;;
12218;SDS011;6172;42.646;23.344;2023-02-15T05:31:15;30.13;;;16.70;;
12218;SDS011;6172;42.646;23.344;2023-02-15T05:33:44;29.73;;;17.43;;
12218;SDS011;6172;42.646;23.344;2023-02-15T05:36:11;28.57;;;16.50;;
12218;SDS011;6172;42.646;23.344;2023-02-15T05:38:38;30.67;;;16.60;;
12218;SDS011;6172;42.646;23.344;2023-02-15T05:41:06;31.60;;;17.13;;
12218;SDS011;6172;42.646;23.344;2023-02-15T05:43:35;30.77;;;18.27;;
12218;SDS011;6172;42.646;23.344;2023-02-15T05:46:05;27.57;;;15.50;;
12218;SDS011;6172;42.646;23.344;2023-02-15T05:48:32;27.33;;;16.77;;
12218;SDS011;6172;42.646;23.344;2023-02-15T05:51:00;27.30;;;16.23;;
12218;SDS011;6172;42.646;23.344;2023-02-15T05:53:29;29.83;;;15.47;;
12218;SDS011;6172;42.646;23.344;2023-02-15T05:55:59;30.07;;;16.83;;
12218;SDS011;6172;42.646;23.344;2023-02-15T05:58:27;27.60;;;14.90;;
12218;SDS011;6172;42.646;23.344;2023-02-15T06:00:57;28.57;;;15.73;;
12218;SDS011;6172;42.646;23.344;2023-02-15T06:03:25;28.83;;;16.80;;
12218;SDS011;6172;42.646;23.344;2023-02-15T06:05:53;27.17;;;15.33;;
12218;SDS011;6172;42.646;23.344;2023-02-15T06:08:20;27.67;;;16.70;;
12218;SDS011;6172;42.646;23.344;2023-02-15T06:10:47;28.77;;;15.83;;
12218;SDS011;6172;42.646;23.344;2023-02-15T06:13:15;26.70;;;15.10;;
12218;SDS011;6172;42.646;23.344;2023-02-15T06:15:42;24.67;;;14.60;;
12218;SDS011;6172;42.646;23.344;2023-02-15T06:18:09;26.47;;;16.07;;
12218;SDS011;6172;42.646;23.344;2023-02-15T06:20:37;29.70;;;15.50;;
12218;SDS011;6172;42.646;23.344;2023-02-15T06:23:04;26.17;;;15.83;;
12218;SDS011;6172;42.646;23.344;2023-02-15T06:25:31;29.23;;;16.63;;
12218;SDS011;6172;42.646;23.344;2023-02-15T06:27:58;28.87;;;16.07;;
12218;SDS011;6172;42.646;23.344;2023-02-15T06:30:25;27.07;;;15.67;;
12218;SDS011;6172;42.646;23.344;2023-02-15T06:32:52;30.13;;;15.57;;
12218;SDS011;6172;42.646;23.344;2023-02-15T06:35:19;26.93;;;15.33;;
12218;SDS011;6172;42.646;23.344;2023-02-15T06:37:48;27.37;;;15.47;;
12218;SDS011;6172;42.646;23.344;2023-02-15T06:40:15;24.77;;;14.00;;
12218;SDS011;6172;42.646;23.344;2023-02-15T06:42:42;24.57;;;14.50;;
12218;SDS011;6172;42.646;23.344;2023-02-15T06:45:10;24.30;;;14.97;;
12218;SDS011;6172;42.646;23.344;2023-02-15T06:47:37;28.43;;;15.53;;
12218;SDS011;6172;42.646;23.344;2023-02-15T06:50:04;23.93;;;14.13;;
12218;SDS011;6172;42.646;23.344;2023-02-15T06:52:33;24.70;;;15.10;;
12218;SDS011;6172;42.646;23.344;2023-02-15T06:55:02;28.57;;;14.87;;
12218;SDS011;6172;42.646;23.344;2023-02-15T06:57:29;24.73;;;14.07;;
12218;SDS011;6172;42.646;23.344;2023-02-15T06:59:57;25.23;;;14.20;;
12218;SDS011;6172;42.646;23.344;2023-02-15T07:02:24;22.73;;;13.23;;
12218;SDS011;6172;42.646;23.344;2023-02-15T07:04:51;23.37;;;13.73;;
12218;SDS011;6172;42.646;23.344;2023-02-15T07:07:18;23.67;;;12.93;;
12218;SDS011;6172;42.646;23.344;2023-02-15T07:09:45;20.40;;;12.17;;
12218;SDS011;6172;42.646;23.344;2023-02-15T07:12:16;19.57;;;11.87;;
12218;SDS011;6172;42.646;23.344;2023-02-15T07:14:59;17.13;;;11.27;;
12218;SDS011;6172;42.646;23.344;2023-02-15T07:17:26;18.37;;;11.30;;
12218;SDS011;6172;42.646;23.344;2023-02-15T07:19:54;19.67;;;12.47;;
12218;SDS011;6172;42.646;23.344;2023-02-15T07:22:21;20.03;;;12.20;;
12218;SDS011;6172;42.646;23.344;2023-02-15T07:24:48;16.40;;;10.77;;
12218;SDS011;6172;42.646;23.344;2023-02-15T07:27:16;18.80;;;11.53;;
12218;SDS011;6172;42.646;23.344;2023-02-15T07:29:43;21.37;;;11.53;;
12218;SDS011;6172;42.646;23.344;2023-02-15T07:32:10;18.00;;;11.80;;
12218;SDS011;6172;42.646;23.344;2023-02-15T07:34:37;18.90;;;11.50;;
12218;SDS011;6172;42.646;23.344;2023-02-15T07:37:04;16.73;;;11.67;;
12218;SDS011;6172;42.646;23.344;2023-02-15T07:39:30;17.30;;;11.33;;
12218;SDS011;6172;42.646;23.344;2023-02-15T07:41:59;15.93;;;10.97;;
12218;SDS011;6172;42.646;23.344;2023-02-15T07:44:28;15.40;;;10.40;;
12218;SDS011;6172;42.646;23.344;2023-02-15T07:46:56;15.63;;;10.47;;
12218;SDS011;6172;42.646;23.344;2023-02-15T07:49:26;15.03;;;10.30;;
12218;SDS011;6172;42.646;23.344;2023-02-15T07:51:53;16.97;;;10.70;;
12218;SDS011;6172;42.646;23.344;2023-02-15T07:54:20;16.87;;;11.17;;
12218;SDS011;6172;42.646;23.344;2023-02-15T07:56:46;15.93;;;10.73;;
12218;SDS011;6172;42.646;23.344;2023-02-15T07:59:13;16.67;;;10.07;;
12218;SDS011;6172;42.646;23.344;2023-02-15T08:01:42;16.87;;;11.47;;
12218;SDS011;6172;42.646;23.344;2023-02-15T08:04:09;19.03;;;11.17;;
12218;SDS011;6172;42.646;23.344;2023-02-15T08:06:38;16.80;;;10.90;;
12218;SDS011;6172;42.646;23.344;2023-02-15T08:09:05;15.97;;;10.70;;
12218;SDS011;6172;42.646;23.344;2023-02-15T08:11:35;19.53;;;11.87;;
12218;SDS011;6172;42.646;23.344;2023-02-15T08:14:05;16.93;;;10.53;;
12218;SDS011;6172;42.646;23.344;2023-02-15T08:16:34;20.03;;;11.57;;
12218;SDS011;6172;42.646;23.344;2023-02-15T08:19:05;18.50;;;11.27;;
12218;SDS011;6172;42.646;23.344;2023-02-15T08:21:33;14.23;;;10.37;;
12218;SDS011;6172;42.646;23.344;2023-02-15T08:24:01;16.40;;;11.00;;
12218;SDS011;6172;42.646;23.344;2023-02-15T08:26:29;15.57;;;10.60;;
12218;SDS011;6172;42.646;23.344;2023-02-15T08:28:57;19.03;;;11.03;;
12218;SDS011;6172;42.646;23.344;2023-02-15T08:31:24;14.27;;;9.70;;
12218;SDS011;6172;42.646;23.344;2023-02-15T08:33:53;15.90;;;10.60;;
12218;SDS011;6172;42.646;23.344;2023-02-15T08:36:22;15.07;;;10.70;;
12218;SDS011;6172;42.646;23.344;2023-02-15T08:38:51;17.70;;;11.10;;
12218;SDS011;6172;42.646;23.344;2023-02-15T08:41:18;14.87;;;10.60;;
12218;SDS011;6172;42.646;23.344;2023-02-15T08:43:47;15.73;;;10.23;;
12218;SDS011;6172;42.646;23.344;2023-02-15T08:46:16;16.00;;;10.33;;
12218;SDS011;6172;42.646;23.344;2023-02-15T08:48:44;20.83;;;11.00;;
12218;SDS011;6172;42.646;23.344;2023-02-15T08:51:11;17.70;;;11.20;;
12218;SDS011;6172;42.646;23.344;2023-02-15T08:53:44;17.77;;;11.60;;
12218;SDS011;6172;42.646;23.344;2023-02-15T08:56:14;19.50;;;11.20;;
12218;SDS011;6172;42.646;23.344;2023-02-15T08:58:42;22.97;;;12.00;;
12218;SDS011;6172;42.646;23.344;2023-02-15T09:01:09;19.17;;;11.00;;
12218;SDS011;6172;42.646;23.344;2023-02-15T09:03:37;23.80;;;12.60;;
12218;SDS011;6172;42.646;23.344;2023-02-15T09:06:05;27.90;;;12.40;;
12218;SDS011;6172;42.646;23.344;2023-02-15T09:08:32;18.20;;;10.87;;
12218;SDS011;6172;42.646;23.344;2023-02-15T09:11:08;14.23;;;9.90;;
12218;SDS011;6172;42.646;23.344;2023-02-15T09:13:36;18.17;;;11.57;;
12218;SDS011;6172;42.646;23.344;2023-02-15T09:16:05;18.83;;;11.60;;
12218;SDS011;6172;42.646;23.344;2023-02-15T09:18:35;20.00;;;11.30;;
12218;SDS011;6172;42.646;23.344;2023-02-15T09:21:04;17.43;;;11.00;;
12218;SDS011;6172;42.646;23.344;2023-02-15T09:23:32;17.27;;;10.93;;
12218;SDS011;6172;42.646;23.344;2023-02-15T09:26:03;20.90;;;11.47;;
12218;SDS011;6172;42.646;23.344;2023-02-15T09:28:36;18.63;;;11.07;;
12218;SDS011;6172;42.646;23.344;2023-02-15T09:31:10;18.80;;;11.87;;
12218;SDS011;6172;42.646;23.344;2023-02-15T09:33:38;15.93;;;10.47;;
12218;SDS011;6172;42.646;23.344;2023-02-15T09:36:13;19.03;;;11.37;;
12218;SDS011;6172;42.646;23.344;2023-02-15T09:38:42;16.40;;;11.53;;
12218;SDS011;6172;42.646;23.344;2023-02-15T09:41:13;16.67;;;11.27;;
12218;SDS011;6172;42.646;23.344;2023-02-15T09:43:53;17.77;;;11.57;;
12218;SDS011;6172;42.646;23.344;2023-02-15T09:46:33;22.60;;;12.00;;
12218;SDS011;6172;42.646;23.344;2023-02-15T09:49:12;17.57;;;12.03;;
12218;SDS011;6172;42.646;23.344;2023-02-15T09:51:52;19.13;;;12.33;;
12218;SDS011;6172;42.646;23.344;2023-02-15T09:54:53;20.20;;;12.27;;
12218;SDS011;6172;42.646;23.344;2023-02-15T09:57:31;17.20;;;10.80;;
12218;SDS011;6172;42.646;23.344;2023-02-15T10:00:06;17.80;;;12.33;;
12218;SDS011;6172;42.646;23.344;2023-02-15T10:02:54;18.83;;;12.20;;
12218;SDS011;6172;42.646;23.344;2023-02-15T10:05:33;19.63;;;12.60;;
12218;SDS011;6172;42.646;23.344;2023-02-15T10:11:05;18.37;;;12.80;;
12218;SDS011;6172;42.646;23.344;2023-02-15T10:14:01;19.10;;;12.80;;
12218;SDS011;6172;42.646;23.344;2023-02-15T10:16:40;17.73;;;11.67;;
12218;SDS011;6172;42.646;23.344;2023-02-15T10:19:19;19.63;;;12.30;;
12218;SDS011;6172;42.646;23.344;2023-02-15T10:22:03;16.97;;;12.77;;
12218;SDS011;6172;42.646;23.344;2023-02-15T10:24:44;19.73;;;13.57;;
12218;SDS011;6172;42.646;23.344;2023-02-15T10:27:18;16.93;;;12.33;;
12218;SDS011;6172;42.646;23.344;2023-02-15T10:29:49;17.80;;;12.37;;
12218;SDS011;6172;42.646;23.344;2023-02-15T10:32:40;17.43;;;12.80;;
12218;SDS011;6172;42.646;23.344;2023-02-15T10:35:22;18.73;;;13.20;;
12218;SDS011;6172;42.646;23.344;2023-02-15T10:38:00;17.33;;;13.00;;
12218;SDS011;6172;42.646;23.344;2023-02-15T10:40:40;17.07;;;12.77;;
12218;SDS011;6172;42.646;23.344;2023-02-15T10:43:24;19.37;;;12.90;;
12218;SDS011;6172;42.646;23.344;2023-02-15T10:46:02;17.80;;;12.80;;
12218;SDS011;6172;42.646;23.344;2023-02-15T10:48:46;16.13;;;12.53;;
12218;SDS011;6172;42.646;23.344;2023-02-15T10:51:29;19.43;;;12.73;;
12218;SDS011;6172;42.646;23.344;2023-02-15T10:54:05;19.53;;;13.00;;
12218;SDS011;6172;42.646;23.344;2023-02-15T10:56:42;16.77;;;12.73;;
12218;SDS011;6172;42.646;23.344;2023-02-15T10:59:23;16.70;;;12.00;;
12218;SDS011;6172;42.646;23.344;2023-02-15T11:02:07;17.23;;;12.23;;
12218;SDS011;6172;42.646;23.344;2023-02-15T11:04:50;18.70;;;12.20;;
12218;SDS011;6172;42.646;23.344;2023-02-15T11:07:23;16.73;;;12.37;;
12218;SDS011;6172;42.646;23.344;2023-02-15T11:09:55;21.30;;;13.53;;
12218;SDS011;6172;42.646;23.344;2023-02-15T11:12:27;20.37;;;13.70;;
12218;SDS011;6172;42.646;23.344;2023-02-15T11:14:57;19.47;;;13.67;;
12218;SDS011;6172;42.646;23.344;2023-02-15T11:17:30;18.37;;;13.07;;
12218;SDS011;6172;42.646;23.344;2023-02-15T11:20:08;20.17;;;13.50;;
12218;SDS011;6172;42.646;23.344;2023-02-15T11:22:44;18.90;;;13.33;;
12218;SDS011;6172;42.646;23.344;2023-02-15T11:25:16;24.57;;;14.27;;
12218;SDS011;6172;42.646;23.344;2023-02-15T11:27:46;18.90;;;13.83;;
12218;SDS011;6172;42.646;23.344;2023-02-15T11:30:17;19.07;;;12.53;;
12218;SDS011;6172;42.646;23.344;2023-02-15T11:32:46;17.77;;;12.63;;
12218;SDS011;6172;42.646;23.344;2023-02-15T11:35:20;22.90;;;14.70;;
12218;SDS011;6172;42.646;23.344;2023-02-15T11:37:51;21.83;;;14.00;;
12218;SDS011;6172;42.646;23.344;2023-02-15T11:40:24;20.23;;;14.13;;
12218;SDS011;6172;42.646;23.344;2023-02-15T11:42:55;18.27;;;13.20;;
12218;SDS011;6172;42.646;23.344;2023-02-15T11:45:26;18.57;;;12.83;;
12218;SDS011;6172;42.646;23.344;2023-02-15T11:47:56;20.33;;;13.57;;
12218;SDS011;6172;42.646;23.344;2023-02-15T11:50:28;17.67;;;12.43;;
12218;SDS011;6172;42.646;23.344;2023-02-15T11:52:58;18.47;;;13.57;;
12218;SDS011;6172;42.646;23.344;2023-02-15T11:55:27;20.23;;;13.67;;
12218;SDS011;6172;42.646;23.344;2023-02-15T11:57:57;19.80;;;14.13;;
12218;SDS011;6172;42.646;23.344;2023-02-15T12:00:31;17.30;;;12.70;;
12218;SDS011;6172;42.646;23.344;2023-02-15T12:03:03;30.33;;;14.20;;
12218;SDS011;6172;42.646;23.344;2023-02-15T12:05:40;18.50;;;12.53;;
12218;SDS011;6172;42.646;23.344;2023-02-15T12:08:15;17.43;;;12.93;;
12218;SDS011;6172;42.646;23.344;2023-02-15T12:10:46;18.43;;;13.13;;
12218;SDS011;6172;42.646;23.344;2023-02-15T12:13:23;18.53;;;13.37;;
12218;SDS011;6172;42.646;23.344;2023-02-15T12:15:51;20.90;;;14.00;;
12218;SDS011;6172;42.646;23.344;2023-02-15T12:18:21;31.10;;;16.10;;
12218;SDS011;6172;42.646;23.344;2023-02-15T12:21:02;26.73;;;15.53;;
12218;SDS011;6172;42.646;23.344;2023-02-15T12:23:32;22.80;;;14.33;;
12218;SDS011;6172;42.646;23.344;2023-02-15T12:26:01;21.93;;;15.03;;
12218;SDS011;6172;42.646;23.344;2023-02-15T12:28:31;21.70;;;14.70;;
12218;SDS011;6172;42.646;23.344;2023-02-15T12:31:00;20.97;;;14.50;;
12218;SDS011;6172;42.646;23.344;2023-02-15T12:33:29;21.23;;;14.57;;
12218;SDS011;6172;42.646;23.344;2023-02-15T12:36:03;22.17;;;13.87;;
12218;SDS011;6172;42.646;23.344;2023-02-15T12:38:43;19.97;;;14.30;;
12218;SDS011;6172;42.646;23.344;2023-02-15T12:41:30;18.13;;;13.77;;
12218;SDS011;6172;42.646;23.344;2023-02-15T12:44:05;23.57;;;14.30;;
12218;SDS011;6172;42.646;23.344;2023-02-15T12:46:35;20.23;;;13.83;;
12218;SDS011;6172;42.646;23.344;2023-02-15T12:49:07;22.93;;;14.77;;
12218;SDS011;6172;42.646;23.344;2023-02-15T12:51:52;22.73;;;15.17;;
12218;SDS011;6172;42.646;23.344;2023-02-15T12:57:14;21.27;;;14.63;;
12218;SDS011;6172;42.646;23.344;2023-02-15T12:59:48;20.83;;;14.37;;
12218;SDS011;6172;42.646;23.344;2023-02-15T13:02:19;23.93;;;15.77;;
12218;SDS011;6172;42.646;23.344;2023-02-15T13:04:51;21.77;;;14.53;;
12218;SDS011;6172;42.646;23.344;2023-02-15T13:07:21;21.93;;;15.40;;
12218;SDS011;6172;42.646;23.344;2023-02-15T13:09:51;20.73;;;14.83;;
12218;SDS011;6172;42.646;23.344;2023-02-15T13:12:20;21.30;;;14.53;;
12218;SDS011;6172;42.646;23.344;2023-02-15T13:14:51;21.70;;;13.97;;
12218;SDS011;6172;42.646;23.344;2023-02-15T13:17:21;21.73;;;14.70;;
12218;SDS011;6172;42.646;23.344;2023-02-15T13:19:54;21.03;;;14.27;;
12218;SDS011;6172;42.646;23.344;2023-02-15T13:22:31;21.43;;;14.30;;
12218;SDS011;6172;42.646;23.344;2023-02-15T13:25:04;20.53;;;14.37;;
12218;SDS011;6172;42.646;23.344;2023-02-15T13:27:39;23.53;;;14.70;;
12218;SDS011;6172;42.646;23.344;2023-02-15T13:30:18;23.53;;;15.30;;
12218;SDS011;6172;42.646;23.344;2023-02-15T13:32:51;24.57;;;14.70;;
12218;SDS011;6172;42.646;23.344;2023-02-15T13:35:22;23.43;;;15.40;;
12218;SDS011;6172;42.646;23.344;2023-02-15T13:37:59;21.60;;;13.60;;
12218;SDS011;6172;42.646;23.344;2023-02-15T13:40:35;23.33;;;14.57;;
12218;SDS011;6172;42.646;23.344;2023-02-15T13:43:12;24.53;;;15.03;;
12218;SDS011;6172;42.646;23.344;2023-02-15T13:45:51;22.90;;;15.07;;
12218;SDS011;6172;42.646;23.344;2023-02-15T13:48:30;22.33;;;15.17;;
12218;SDS011;6172;42.646;23.344;2023-02-15T13:51:09;23.93;;;15.07;;
12218;SDS011;6172;42.646;23.344;2023-02-15T13:53:48;22.97;;;14.90;;
12218;SDS011;6172;42.646;23.344;2023-02-15T13:56:26;24.70;;;15.13;;
12218;SDS011;6172;42.646;23.344;2023-02-15T13:59:06;22.87;;;14.47;;
12218;SDS011;6172;42.646;23.344;2023-02-15T14:01:49;23.37;;;15.43;;
12218;SDS011;6172;42.646;23.344;2023-02-15T14:04:31;26.23;;;14.27;;
12218;SDS011;6172;42.646;23.344;2023-02-15T14:07:21;23.80;;;14.80;;
12218;SDS011;6172;42.646;23.344;2023-02-15T14:10:15;21.33;;;14.17;;
12218;SDS011;6172;42.646;23.344;2023-02-15T14:12:58;20.37;;;14.20;;
12218;SDS011;6172;42.646;23.344;2023-02-15T14:15:46;23.27;;;14.63;;
12218;SDS011;6172;42.646;23.344;2023-02-15T14:18:19;22.03;;;14.47;;
12218;SDS011;6172;42.646;23.344;2023-02-15T14:20:58;23.70;;;14.97;;
12218;SDS011;6172;42.646;23.344;2023-02-15T14:23:38;23.87;;;14.87;;
12218;SDS011;6172;42.646;23.344;2023-02-15T14:26:17;25.07;;;15.43;;
12218;SDS011;6172;42.646;23.344;2023-02-15T14:28:58;26.33;;;16.07;;
12218;SDS011;6172;42.646;23.344;2023-02-15T14:31:37;26.63;;;15.67;;
12218;SDS011;6172;42.646;23.344;2023-02-15T14:34:08;28.67;;;16.17;;
12218;SDS011;6172;42.646;23.344;2023-02-15T14:36:47;26.50;;;16.63;;
12218;SDS011;6172;42.646;23.344;2023-02-15T14:39:18;26.53;;;15.90;;
12218;SDS011;6172;42.646;23.344;2023-02-15T14:45:06;26.10;;;16.27;;
12218;SDS011;6172;42.646;23.344;2023-02-15T14:47:46;25.60;;;16.00;;
12218;SDS011;6172;42.646;23.344;2023-02-15T14:50:43;30.87;;;16.50;;
12218;SDS011;6172;42.646;23.344;2023-02-15T14:53:15;28.43;;;16.47;;
12218;SDS011;6172;42.646;23.344;2023-02-15T14:55:53;27.33;;;16.93;;
12218;SDS011;6172;42.646;23.344;2023-02-15T14:58:34;27.80;;;17.07;;
12218;SDS011;6172;42.646;23.344;2023-02-15T15:01:03;26.63;;;16.70;;
12218;SDS011;6172;42.646;23.344;2023-02-15T15:03:32;27.13;;;17.10;;
12218;SDS011;6172;42.646;23.344;2023-02-15T15:06:01;28.47;;;16.03;;